Monday, November 20, 2017, 4:14 AM GMT
Back to Local

CYFC, Fredericton, N. B.

Location: , , Canada Lat: 45.867
Local Time: 4:14 AM GMT ( 4:14 GMT) Lon: -66.533
Time Zone: GMT Elev: 55 ft

Show me the last for .
Show Decoded

2017-11-20 04:00 METAR CYFC 200400Z AUTO 27012G25KT 240V300 9SM OVC032 01/M02 A2930 RMK SLP923 =
2017-11-20 03:00 METAR CYFC 200300Z AUTO 25012G24KT 9SM OVC026 02/M01 A2925 RMK SLP906 =
2017-11-20 02:50 METAR CYFC 200250Z AUTO 25011G21KT 9SM BKN026 OVC031 02/M00 A2925 RMK SLP906 =
2017-11-20 02:43 METAR CYFC 200243Z AUTO 26014G21KT 9SM BKN024 OVC029 02/M00 A2924 RMK SLP903 =
2017-11-20 02:23 METAR CYFC 200223Z AUTO 27010G22KT 230V310 9SM OVC029 02/00 A2922 RMK SLP898 =
2017-11-20 02:21 METAR CYFC 200221Z AUTO 25014G22KT 230V310 9SM OVC029 02/M00 A2922 RMK SLP898 =
2017-11-20 02:17 METAR CYFC 200217Z AUTO 27011G22KT 240V310 9SM OVC029 02/00 A2922 RMK PRESRR
                 SLP898 =
2017-11-20 02:00 METAR CYFC 200200Z AUTO 27015G25KT 9SM OVC027 03/00 A2920 RMK SLP891 =
2017-11-20 01:42 METAR CYFC 200142Z AUTO 26013G24KT 9SM SCT019 OVC025 03/01 A2919 RMK PRESRR
                 SLP886 =
2017-11-20 01:33 METAR CYFC 200133Z AUTO 26014G25KT 9SM BKN018 BKN024 OVC055 03/01 A2918 RMK
                 PRESRR SLP884 =
2017-11-20 01:23 METAR CYFC 200123Z AUTO 26011G16KT 230V310 9SM -RA SCT015 BKN022 OVC055 04/02
                 A2917 RMK PRESRR SLP880 =
2017-11-20 01:19 METAR CYFC 200119Z AUTO 26009G17KT 240V310 9SM -RA SCT017 SCT025 BKN050 OVC065
                 04/02 A2917 RMK SLP878 =
2017-11-20 01:04 METAR CYFC 200104Z AUTO 26012G22KT 230V310 9SM FEW018 SCT026 OVC050 04/02 A2915
                 RMK PRESRR SLP874 =
2017-11-20 01:00 METAR CYFC 200100Z AUTO 27012G22KT 240V310 9SM -RA FEW016 OVC050 04/02 A2915 RMK
                 PRESRR SLP873 =
2017-11-20 00:15 METAR CYFC 200015Z AUTO 28015G22KT 9SM -RA SCT016 BKN050 OVC060 05/03 A2910 RMK
                 PRESRR SLP856 =
2017-11-20 00:00 METAR CYFC 200000Z AUTO 26015G26KT 9SM -RA OVC016 07/06 A2908 RMK PRESRR PCPN
                 1.0MM PAST HR SLP848 DENSITY ALT 100FT =
2017-11-19 23:45 METAR CYFC 192345Z AUTO 28013G20KT 9SM -RA BKN016 BKN046 OVC060 08/07 A2906 RMK
                 PRESRR SLP843 DENSITY ALT 200FT =
2017-11-19 23:42 METAR CYFC 192342Z AUTO 28012G20KT 9SM BKN016 BKN046 OVC060 08/07 A2906 RMK
                 PRESRR SLP842 DENSITY ALT 200FT =
2017-11-19 23:38 METAR CYFC 192338Z AUTO 28011G20KT 250V310 9SM SCT016 SCT032 BKN046 OVC060 09/07
                 A2905 RMK PRESRR SLP840 DENSITY ALT 300FT =
2017-11-19 23:19 METAR CYFC 192319Z AUTO 28013G26KT 6SM -RA BR SCT016 BKN027 BKN037 OVC065 10/08
                 A2903 RMK PRESRR SLP833 DENSITY ALT 400FT =
2017-11-19 23:15 METAR CYFC 192315Z AUTO 27014G29KT 230V300 4SM -RA BR SCT016 BKN025 BKN033
                 OVC040 10/08 A2903 RMK PRESRR SLP831 DENSITY ALT 500FT =
2017-11-19 23:09 METAR CYFC 192309Z AUTO 25013G30KT 190V260 5SM -RA BR SCT016 BKN023 OVC030 11/09
                 A2902 RMK PRESRR SLP830 DENSITY ALT 600FT =
2017-11-19 23:07 METAR CYFC 192307Z AUTO 24020G30KT 180V260 7SM -RA SCT016 BKN023 BKN027 OVC037
                 12/09 A2902 RMK PRESRR SLP829 DENSITY ALT 700FT =
2017-11-19 23:02 METAR CYFC 192302Z AUTO 19015KT 9SM SCT018 BKN023 BKN027 OVC037 13/11 A2899 RMK
                 SLP819 DENSITY ALT 800FT =
2017-11-19 23:01 METAR CYFC 192301Z AUTO 19014KT 9SM -RA SCT020 BKN027 OVC037 13/11 A2899 RMK
                 SLP819 DENSITY ALT 800FT =
2017-11-19 23:00 METAR CYFC 192300Z AUTO 19014KT 9SM -RA SCT017 BKN024 BKN030 OVC037 13/11 A2899
                 RMK SLP819 DENSITY ALT 800FT =
2017-11-19 22:51 METAR CYFC 192251Z AUTO 19015G20KT 9SM -RA SCT017 BKN022 OVC030 13/11 A2899 RMK
                 SLP818 DENSITY ALT 800FT =
2017-11-19 22:50 METAR CYFC 192250Z AUTO 19014G20KT 9SM SCT020 OVC030 13/11 A2899 RMK SLP818
                 DENSITY ALT 800FT =
2017-11-19 22:34 METAR CYFC 192234Z AUTO 19012G18KT 9SM SCT019 BKN024 OVC030 13/11 A2898 RMK
                 SLP817 DENSITY ALT 800FT =
2017-11-19 22:32 METAR CYFC 192232Z AUTO 19011G19KT 9SM SCT019 SCT024 OVC030 13/11 A2899 RMK
                 SLP818 DENSITY ALT 800FT =
2017-11-19 22:00 METAR CYFC 192200Z AUTO 19012G20KT 9SM BKN019 BKN095 13/12 A2898 RMK SLP816
                 DENSITY ALT 900FT =
2017-11-19 21:32 METAR CYFC 192132Z AUTO 18014G25KT 9SM BKN016 OVC022 13/12 A2897 RMK SLP811
                 DENSITY ALT 900FT =
2017-11-19 21:19 METAR CYFC 192119Z AUTO 18013G21KT 9SM -RA BKN016 OVC022 13/12 A2897 RMK SLP811
                 DENSITY ALT 900FT =
2017-11-19 21:18 METAR CYFC 192118Z AUTO 18016G23KT 9SM BKN016 OVC022 13/12 A2897 RMK SLP811
                 DENSITY ALT 900FT =
2017-11-19 21:07 METAR CYFC 192107Z AUTO 17017G24KT 7SM -RA SCT013 BKN018 OVC026 13/12 A2896 RMK
                 SLP810 DENSITY ALT 900FT =
2017-11-19 21:00 METAR CYFC 192100Z AUTO 17015G23KT 5SM -RA BR BKN015 BKN024 OVC033 13/12 A2896
                 RMK SLP810 DENSITY ALT 900FT =
2017-11-19 20:45 METAR CYFC 192045Z AUTO 17016G22KT 6SM -RA BR BKN017 BKN028 OVC049 14/13 A2896
                 RMK SLP810 DENSITY ALT 1000FT =
2017-11-19 20:40 METAR CYFC 192040Z AUTO 17013G20KT 5SM -RA BR BKN017 BKN026 BKN033 OVC049 13/12
                 A2897 RMK SLP811 DENSITY ALT 900FT =
2017-11-19 20:25 METAR CYFC 192025Z AUTO 17014G23KT 8SM -RA BKN019 OVC024 14/12 A2898 RMK SLP815
                 DENSITY ALT 900FT =
2017-11-19 20:22 METAR CYFC 192022Z AUTO 17013G23KT 9SM FEW014 BKN019 OVC024 14/12 A2898 RMK
                 SLP815 DENSITY ALT 1000FT =
2017-11-19 20:07 METAR CYFC 192007Z AUTO 16014G19KT 9SM -RA BKN016 BKN024 OVC048 14/13 A2898 RMK
                 SLP817 DENSITY ALT 900FT =
2017-11-19 20:02 METAR CYFC 192002Z AUTO 16012G19KT 9SM SCT016 BKN024 OVC070 14/13 A2899 RMK
                 SLP818 DENSITY ALT 900FT =
2017-11-19 20:00 METAR CYFC 192000Z AUTO 17011G19KT 9SM -RA SCT016 BKN021 BKN026 OVC070 14/13
                 A2899 RMK SLP818 DENSITY ALT 1000FT =
2017-11-19 19:27 METAR CYFC 191927Z AUTO 18014G20KT 9SM -RA BKN015 OVC021 14/13 A2901 RMK SLP824
                 DENSITY ALT 900FT =
2017-11-19 19:00 METAR CYFC 191900Z AUTO 17012G20KT 9SM BKN015 OVC023 14/13 A2901 RMK SLP824
                 DENSITY ALT 1000FT =
2017-11-19 18:41 METAR CYFC 191841Z AUTO 17011KT 9SM OVC015 14/13 A2902 RMK PRESFR SLP828 DENSITY
                 ALT 900FT =
2017-11-19 18:04 METAR CYFC 191804Z AUTO 17011G17KT 6SM -RA BR SCT009 OVC015 14/13 A2905 RMK
                 SLP840 DENSITY ALT 900FT =
2017-11-19 18:00 METAR CYFC 191800Z AUTO 16012G17KT 5SM -RA BR SCT009 OVC015 14/13 A2906 RMK PCPN
                 1.2MM PAST HR SLP841 DENSITY ALT 900FT =
2017-11-19 17:35 METAR CYFC 191735Z AUTO 17010G16KT 4SM -RA BR BKN012 OVC018 14/13 A2907 RMK
                 SLP846 DENSITY ALT 800FT =
2017-11-19 17:23 METAR CYFC 191723Z AUTO 17012KT 6SM -RA BR SCT009 OVC015 14/13 A2907 RMK PRESFR
                 SLP847 DENSITY ALT 800FT =
2017-11-19 17:01 METAR CYFC 191701Z AUTO 17012G18KT 5SM -RA BR OVC013 14/13 A2909 RMK SLP853
                 DENSITY ALT 800FT =
2017-11-19 17:00 METAR CYFC 191700Z AUTO 17012G18KT 7SM -RA FEW009 OVC013 14/13 A2909 RMK SLP853
                 DENSITY ALT 800FT =
2017-11-19 16:43 METAR CYFC 191643Z AUTO 16014KT 6SM -RA BR BKN013 OVC019 14/13 A2911 RMK SLP859
                 DENSITY ALT 800FT =
2017-11-19 16:30 METAR CYFC 191630Z AUTO 16014KT 5SM -RA BR BKN015 OVC019 14/13 A2911 RMK SLP861
                 DENSITY ALT 800FT
2017-11-19 16:00 METAR CYFC 191600Z AUTO 17008KT 6SM -RA BR OVC013 13/13 A2914 RMK PRESFR SLP870
                 DENSITY ALT 700FT =
2017-11-19 15:56 METAR CYFC 191556Z AUTO 17010G16KT 6SM -RA BR OVC013 13/13 A2915 RMK PRESFR
                 SLP873 DENSITY ALT 700FT =
2017-11-19 15:42 METAR CYFC 191542Z AUTO 17011G16KT 5SM -RA BR OVC013 13/13 A2916 RMK PRESFR
                 SLP877 DENSITY ALT 700FT =
2017-11-19 15:30 METAR CYFC 191530Z AUTO 16011KT 9SM -RA OVC013 13/12 A2917 RMK WSHFT AT 1517Z
                 PRESFR SLP881 DENSITY ALT 600FT =
2017-11-19 15:18 METAR CYFC 191518Z AUTO 10005KT 070V140 6SM -RA BR OVC011 09/09 A2919 RMK PRESFR
                 SLP886 DENSITY ALT 100FT =
2017-11-19 15:06 METAR CYFC 191506Z AUTO 07006KT 4SM -RA BR OVC011 08/08 A2920 RMK PRESFR SLP891
                 =
2017-11-19 15:00 METAR CYFC 191500Z AUTO 06005KT 4SM -RA BR FEW002 OVC009 08/08 A2921 RMK SLP893
                 =
2017-11-19 14:47 METAR CYFC 191447Z AUTO 06005KT 4SM -RA BR SCT002 OVC009 08/08 A2922 RMK SLP897
                 =
2017-11-19 14:00 METAR CYFC 191400Z AUTO 06006KT 3SM -RA BR OVC002 06/06 A2925 RMK PRESFR SLP908
                 =
2017-11-19 13:00 METAR CYFC 191300Z AUTO 06008KT 5SM -RA BR OVC002 05/04 A2931 RMK PRESFR SLP929
                 =
2017-11-19 12:55 METAR CYFC 191255Z AUTO 06008KT 4SM RA BR OVC002 04/04 A2933 RMK PRESFR SLP933 =
2017-11-19 12:00 METAR CYFC 191200Z AUTO 05007KT 4SM RA BR OVC004 04/04 A2938 RMK PCPN 1.0MM PAST
                 HR SLP950 =
2017-11-19 11:06 METAR CYFC 191106Z AUTO 06007KT 5SM -RA BR OVC004 03/03 A2941 RMK SLP961 =
2017-11-19 11:00 METAR CYFC 191100Z AUTO 05007KT 6SM -RA BR OVC004 03/03 A2941 RMK SLP962 =
2017-11-19 10:58 METAR CYFC 191058Z AUTO 06007KT 6SM -RA BR OVC004 03/03 A2941 RMK SLP963 =
2017-11-19 10:37 METAR CYFC 191037Z AUTO 06008KT 3SM -RA BR OVC004 03/02 A2942 RMK PRESFR SLP965
                 =
2017-11-19 10:24 METAR CYFC 191024Z AUTO 06007KT 5SM -RA BR OVC006 03/02 A2943 RMK PRESFR SLP969
                 =
2017-11-19 10:00 METAR CYFC 191000Z AUTO 06007KT 7SM -RA OVC006 02/02 A2946 RMK SLP978 =
2017-11-19 09:50 METAR CYFC 190950Z AUTO 06007KT 6SM -RA BR BKN006 OVC011 02/02 A2947 RMK PRESFR
                 SLP981 =
2017-11-19 09:38 METAR CYFC 190938Z AUTO 05006KT 3SM -RA BR BKN006 BKN010 OVC027 02/01 A2948 RMK
                 SLP984 =
2017-11-19 09:36 METAR CYFC 190936Z AUTO 06006KT 4SM -RA BR SCT006 BKN010 BKN027 OVC050 02/01
                 A2948 RMK SLP985 =
2017-11-19 09:34 METAR CYFC 190934Z AUTO 06006KT 5SM -RA BR BKN008 BKN027 OVC050 02/01 A2948 RMK
                 SLP986 =
2017-11-19 09:32 METAR CYFC 190932Z AUTO 06007KT 6SM -RA BR BKN010 BKN027 OVC050 02/01 A2948 RMK
                 SLP986 =
2017-11-19 09:26 METAR CYFC 190926Z AUTO 06007KT 9SM BKN010 BKN025 OVC050 01/01 A2949 RMK SLP988
                 =
2017-11-19 09:19 METAR CYFC 190919Z AUTO 06009KT 9SM FEW010 BKN025 BKN039 OVC050 01/01 A2949 RMK
                 SLP989 =
2017-11-19 09:06 METAR CYFC 190906Z AUTO 05007KT 9SM -RA OVC025 01/01 A2950 RMK PRESFR SLP992 =
2017-11-19 09:05 METAR CYFC 190905Z AUTO 05008KT 9SM -RA BKN023 OVC028 01/01 A2950 RMK PRESFR
                 SLP993 =
2017-11-19 09:00 METAR CYFC 190900Z AUTO 06009KT 9SM -RA BKN026 OVC032 01/00 A2951 RMK PRESFR
                 SLP995 =
2017-11-19 08:41 METAR CYFC 190841Z AUTO 06007KT 9SM -RA FEW020 BKN030 OVC037 01/M00 A2953 RMK
                 PRESFR SLP002 =
2017-11-19 08:35 METAR CYFC 190835Z AUTO 06007KT 9SM -RA -UP SCT020 OVC035 01/M00 A2954 RMK
                 SLP004 =
2017-11-19 08:28 METAR CYFC 190828Z AUTO 06006KT 8SM -UP SCT020 BKN037 OVC044 01/M00 A2954 RMK
                 PRESFR SLP006 =
2017-11-19 08:22 METAR CYFC 190822Z AUTO 06007KT 9SM -RA -UP FEW020 BKN039 OVC055 01/M00 A2954
                 RMK SLP007 =
2017-11-19 08:00 METAR CYFC 190800Z AUTO 05008KT 9SM -RA SCT040 OVC060 01/M01 A2955 RMK PRESFR
                 SLP010 =
2017-11-19 07:00 METAR CYFC 190700Z AUTO 06006KT 9SM -RA BKN029 BKN044 BKN055 OVC078 00/M02 A2962
                 RMK SLP032 =
2017-11-19 06:58 METAR CYFC 190658Z AUTO 06006KT 9SM -RA BKN031 BKN055 BKN074 OVC087 00/M02 A2962
                 RMK SLP033 =
2017-11-19 06:00 METAR CYFC 190600Z AUTO 07004KT 9SM OVC060 01/M03 A2965 RMK SLP042 =
2017-11-19 05:00 METAR CYFC 190500Z AUTO 06006KT 9SM OVC080 00/M03 A2967 RMK PRESFR SLP049 =

Support USWX by starting your Amazon purchase here.